Time;durP1;ratioP1;P1;durP2;ratioP2;P2;SDS_P1;SDS_P2;PMS_P1;PMS_P2;Temp;Humidity;BMP_temperature;BMP_pressure;BME280_temperature;BME280_humidity;BME280_pressure;Samples;Min_cycle;Max_cycle;Signal;HPM_P1;HPM_P2
2021/01/27 00:00:12;;;;;;;8.73;5.67;;;0.40;99.90;;;;;;5049793;28;20188;-71
2021/01/27 00:02:38;;;;;;;6.43;5.30;;;0.40;99.90;;;;;;5049368;28;20182;-71
2021/01/27 00:05:07;;;;;;;4.30;3.90;;;0.40;99.90;;;;;;5049341;28;20804;-72
2021/01/27 00:07:32;;;;;;;6.03;4.57;;;0.40;99.90;;;;;;5048319;28;20205;-71
2021/01/27 00:09:58;;;;;;;4.73;4.33;;;0.50;99.90;;;;;;5048794;28;20434;-72
2021/01/27 00:12:24;;;;;;;5.37;4.00;;;0.50;99.90;;;;;;5048548;28;20231;-72
2021/01/27 00:14:49;;;;;;;6.70;5.40;;;0.60;99.90;;;;;;5048696;28;20291;-72
2021/01/27 00:17:15;;;;;;;6.10;4.77;;;0.60;99.90;;;;;;5049359;28;20531;-71
2021/01/27 00:19:41;;;;;;;6.90;4.40;;;0.60;99.90;;;;;;5052318;28;20182;-71
2021/01/27 00:22:06;;;;;;;7.03;4.50;;;0.70;99.90;;;;;;5051838;28;20186;-72
2021/01/27 00:24:32;;;;;;;4.90;4.50;;;0.70;99.90;;;;;;5052192;28;20630;-72
2021/01/27 00:26:57;;;;;;;6.30;5.03;;;0.80;99.90;;;;;;5051474;28;20683;-72
2021/01/27 00:29:23;;;;;;;5.27;4.70;;;0.80;99.90;;;;;;5052087;28;20185;-70
2021/01/27 00:31:48;;;;;;;10.40;4.90;;;0.80;99.90;;;;;;5044093;28;20196;-72
2021/01/27 00:34:14;;;;;;;6.53;5.33;;;0.90;99.90;;;;;;5051677;28;20284;-72
2021/01/27 00:36:39;;;;;;;6.63;5.50;;;0.80;99.90;;;;;;5051749;28;20236;-71
2021/01/27 00:39:05;;;;;;;7.43;5.90;;;0.80;99.90;;;;;;5051749;28;20303;-70
2021/01/27 00:41:31;;;;;;;8.90;7.00;;;0.90;99.90;;;;;;5051604;28;20257;-72
2021/01/27 00:43:56;;;;;;;6.63;6.00;;;0.80;99.90;;;;;;5051631;28;20181;-72
2021/01/27 00:46:22;;;;;;;7.20;5.67;;;0.80;99.90;;;;;;5050999;28;20645;-71
2021/01/27 00:48:48;;;;;;;9.90;7.07;;;0.80;99.90;;;;;;5051512;28;20578;-72
2021/01/27 00:51:15;;;;;;;7.53;6.10;;;0.80;99.90;;;;;;5051397;28;20659;-72
2021/01/27 00:53:42;;;;;;;6.87;5.73;;;0.70;99.90;;;;;;5051208;28;20801;-71
2021/01/27 00:56:07;;;;;;;8.37;5.97;;;0.60;99.90;;;;;;5051385;28;20477;-72
2021/01/27 00:58:33;;;;;;;9.13;6.87;;;0.60;99.90;;;;;;5033544;28;20546;-72
2021/01/27 01:00:58;;;;;;;7.37;6.73;;;0.60;99.90;;;;;;5033310;28;20182;-72
2021/01/27 01:03:24;;;;;;;15.97;6.57;;;0.60;99.90;;;;;;5051293;28;20196;-71
2021/01/27 01:05:49;;;;;;;10.30;7.27;;;0.60;99.90;;;;;;5050359;28;20652;-72
2021/01/27 01:08:17;;;;;;;7.60;6.60;;;0.50;99.90;;;;;;5032587;28;562930;-71
2021/01/27 01:10:48;;;;;;;8.53;7.27;;;0.50;99.90;;;;;;5052314;28;20239;-71
2021/01/27 01:13:20;;;;;;;8.73;7.20;;;0.60;99.90;;;;;;5052520;28;20440;-71
2021/01/27 01:15:46;;;;;;;8.50;7.70;;;0.60;99.90;;;;;;5051753;28;20978;-71
2021/01/27 01:18:12;;;;;;;10.97;8.40;;;0.60;99.90;;;;;;5052074;28;20498;-72
2021/01/27 01:20:38;;;;;;;10.10;7.53;;;0.60;99.90;;;;;;5052055;28;20201;-72
2021/01/27 01:23:04;;;;;;;10.33;7.13;;;0.60;99.90;;;;;;5051531;28;20178;-71
2021/01/27 01:25:31;;;;;;;11.30;8.00;;;0.60;99.90;;;;;;5050900;28;20531;-71
2021/01/27 01:27:57;;;;;;;9.40;7.37;;;0.60;99.90;;;;;;5051907;28;20452;-72
2021/01/27 01:30:23;;;;;;;20.33;8.97;;;0.60;99.90;;;;;;5051875;28;20813;-72
2021/01/27 01:32:49;;;;;;;10.17;7.07;;;0.70;99.90;;;;;;5034247;28;20439;-72
2021/01/27 01:35:17;;;;;;;13.93;7.30;;;0.70;99.90;;;;;;5051564;28;20550;-71
2021/01/27 01:37:43;;;;;;;8.23;7.03;;;0.70;99.90;;;;;;5051826;28;20608;-73
2021/01/27 01:40:22;;;;;;;9.40;8.40;;;0.80;99.90;;;;;;5051564;28;20432;-71
2021/01/27 01:43:19;;;;;;;8.67;6.70;;;0.80;99.90;;;;;;5051955;28;20256;-71
2021/01/27 01:45:45;;;;;;;10.23;7.03;;;0.80;99.90;;;;;;5050403;28;20436;-71
2021/01/27 01:48:27;;;;;;;7.47;6.20;;;0.90;99.90;;;;;;5051355;28;20951;-72
2021/01/27 01:51:00;;;;;;;8.80;7.47;;;0.90;99.90;;;;;;5051807;28;20443;-71
2021/01/27 01:53:26;;;;;;;8.90;7.30;;;0.90;99.90;;;;;;5051744;28;20432;-71
2021/01/27 01:55:55;;;;;;;8.10;6.60;;;0.90;99.90;;;;;;5051744;28;20436;-72
2021/01/27 01:58:21;;;;;;;8.40;6.60;;;0.80;99.90;;;;;;5052089;28;20220;-72
2021/01/27 02:00:50;;;;;;;9.57;6.73;;;0.80;99.90;;;;;;5051781;28;20442;-71
2021/01/27 02:03:16;;;;;;;9.93;6.67;;;0.80;99.90;;;;;;5051434;28;20420;-72
2021/01/27 02:05:42;;;;;;;7.73;6.93;;;0.80;99.90;;;;;;5051243;28;20796;-72
2021/01/27 02:08:07;;;;;;;10.40;6.83;;;0.80;99.90;;;;;;5051335;28;20213;-72
2021/01/27 02:10:33;;;;;;;10.83;7.60;;;0.80;99.90;;;;;;5050757;28;20187;-72
2021/01/27 02:13:23;;;;;;;10.53;6.53;;;0.70;99.90;;;;;;5051423;28;20261;-72
2021/01/27 02:15:51;;;;;;;7.50;5.27;;;0.70;99.90;;;;;;5036141;28;20209;-72
2021/01/27 02:18:38;;;;;;;8.37;6.73;;;0.70;99.90;;;;;;5050909;28;20447;-72
2021/01/27 02:21:30;;;;;;;8.83;6.57;;;0.70;99.90;;;;;;5051383;28;20447;-71
2021/01/27 02:24:23;;;;;;;7.10;6.40;;;0.60;99.90;;;;;;5044198;28;20443;-71
2021/01/27 02:27:08;;;;;;;8.33;6.90;;;0.60;99.90;;;;;;5050422;28;20456;-72
2021/01/27 02:30:11;;;;;;;8.23;6.50;;;0.60;99.90;;;;;;5050801;28;20478;-71
2021/01/27 02:32:52;;;;;;;7.10;6.37;;;0.50;99.90;;;;;;5050636;28;20792;-71
2021/01/27 02:35:51;;;;;;;8.70;7.13;;;0.50;99.90;;;;;;5050370;28;20533;-72
2021/01/27 02:38:33;;;;;;;10.30;7.17;;;0.50;99.90;;;;;;5036294;28;20828;-71
2021/01/27 02:41:17;;;;;;;11.83;7.00;;;0.40;99.90;;;;;;5050394;28;20462;-71
2021/01/27 02:43:47;;;;;;;8.83;7.53;;;0.50;99.90;;;;;;5050362;28;20493;-71
2021/01/27 02:46:42;;;;;;;7.63;6.10;;;0.50;99.90;;;;;;5050151;28;20423;-71
2021/01/27 02:49:36;;;;;;;7.40;6.07;;;0.50;99.90;;;;;;5050839;28;20479;-72
2021/01/27 02:52:15;;;;;;;10.20;7.27;;;0.40;99.90;;;;;;5050145;28;20459;-71
2021/01/27 02:55:02;;;;;;;7.87;7.00;;;0.30;99.90;;;;;;5050438;28;20468;-72
2021/01/27 02:57:34;;;;;;;15.30;7.77;;;0.30;99.90;;;;;;5049825;28;20459;-72
2021/01/27 03:00:12;;;;;;;8.80;7.63;;;0.30;99.90;;;;;;5050541;28;20459;-71
2021/01/27 03:02:43;;;;;;;12.37;8.10;;;0.30;99.90;;;;;;5049828;28;20420;-71
2021/01/27 03:05:32;;;;;;;7.07;6.30;;;0.40;99.90;;;;;;5032283;28;20432;-71
2021/01/27 03:08:03;;;;;;;11.10;6.57;;;0.40;99.90;;;;;;5050053;28;20819;-72
2021/01/27 03:10:40;;;;;;;14.20;7.70;;;0.40;99.90;;;;;;5050503;28;20432;-72
2021/01/27 03:13:07;;;;;;;7.83;6.50;;;0.40;99.90;;;;;;5049956;28;20440;-70
2021/01/27 03:15:35;;;;;;;8.17;6.33;;;0.50;99.90;;;;;;5049825;28;20471;-71
2021/01/27 03:18:02;;;;;;;7.87;6.63;;;0.50;99.90;;;;;;5050185;28;20448;-71
2021/01/27 03:20:32;;;;;;;8.83;7.20;;;0.50;99.90;;;;;;5049833;28;20456;-72
2021/01/27 03:23:09;;;;;;;9.97;6.60;;;0.50;99.90;;;;;;5050232;28;20978;-71
2021/01/27 03:25:44;;;;;;;8.27;5.60;;;0.50;99.90;;;;;;5049976;28;20903;-72
2021/01/27 03:28:23;;;;;;;9.80;7.50;;;0.50;99.90;;;;;;5050596;28;21042;-72
2021/01/27 03:30:50;;;;;;;8.70;5.60;;;0.50;99.90;;;;;;5049687;28;20494;-71
2021/01/27 03:33:23;;;;;;;8.10;6.10;;;0.60;99.90;;;;;;5031792;28;20771;-72
2021/01/27 03:35:52;;;;;;;6.87;5.97;;;0.60;99.90;;;;;;5049526;28;20468;-72
2021/01/27 03:38:30;;;;;;;10.07;6.27;;;0.60;99.90;;;;;;5049701;28;20455;-71
2021/01/27 03:41:02;;;;;;;6.23;5.67;;;0.70;99.90;;;;;;5049779;28;20431;-72
2021/01/27 03:43:36;;;;;;;7.33;5.60;;;0.70;99.90;;;;;;5049764;28;20481;-71
2021/01/27 03:46:26;;;;;;;10.30;5.30;;;0.70;99.90;;;;;;5049697;28;20439;-72
2021/01/27 03:49:06;;;;;;;14.77;6.33;;;0.70;99.90;;;;;;5049409;28;20440;-71
2021/01/27 03:51:38;;;;;;;7.00;5.20;;;0.70;99.90;;;;;;5050381;28;20432;-72
2021/01/27 03:54:09;;;;;;;6.50;5.00;;;0.70;99.90;;;;;;5054243;28;20554;-71
2021/01/27 03:56:47;;;;;;;9.97;4.87;;;0.80;99.90;;;;;;5052478;28;20456;-72
2021/01/27 03:59:13;;;;;;;8.20;5.90;;;0.70;99.90;;;;;;5054145;28;20423;-72
2021/01/27 04:01:50;;;;;;;9.77;6.00;;;0.70;99.90;;;;;;5053804;28;20431;-72
2021/01/27 04:04:16;;;;;;;7.60;4.97;;;0.70;99.90;;;;;;5053817;28;20185;-71
2021/01/27 04:06:42;;;;;;;7.00;4.50;;;0.70;99.90;;;;;;5053149;28;20483;-71
2021/01/27 04:09:08;;;;;;;5.90;5.30;;;0.80;99.90;;;;;;5053881;28;20930;-71
2021/01/27 04:11:35;;;;;;;5.40;4.60;;;0.80;99.90;;;;;;5053297;28;20181;-72
2021/01/27 04:14:00;;;;;;;7.17;5.30;;;0.90;99.90;;;;;;5053137;28;20555;-71
2021/01/27 04:16:26;;;;;;;6.03;5.07;;;0.90;99.90;;;;;;5052669;28;20526;-71
2021/01/27 04:18:52;;;;;;;4.77;4.27;;;0.90;99.90;;;;;;5053400;28;20187;-71
2021/01/27 04:21:17;;;;;;;6.50;4.77;;;0.90;99.90;;;;;;5053224;28;20181;-72
2021/01/27 04:23:43;;;;;;;10.40;5.10;;;0.90;99.90;;;;;;5053374;28;20186;-72
2021/01/27 04:26:09;;;;;;;5.70;4.17;;;0.90;99.90;;;;;;5052873;28;20181;-72
2021/01/27 04:28:34;;;;;;;6.90;4.60;;;1.00;99.90;;;;;;5053152;28;20197;-71
2021/01/27 04:31:00;;;;;;;6.20;4.60;;;1.00;99.90;;;;;;5053064;28;20436;-72
2021/01/27 04:33:26;;;;;;;4.20;3.80;;;1.00;99.90;;;;;;5053155;28;20182;-72
2021/01/27 04:35:51;;;;;;;5.40;4.70;;;1.00;99.90;;;;;;5052896;28;20600;-72
2021/01/27 04:38:17;;;;;;;7.13;4.80;;;1.00;99.90;;;;;;5052815;28;20458;-72
2021/01/27 04:40:45;;;;;;;6.83;4.50;;;1.00;99.90;;;;;;5034698;28;20438;-71
2021/01/27 04:43:25;;;;;;;5.27;4.77;;;1.00;99.90;;;;;;5034931;28;20173;-71
2021/01/27 04:45:58;;;;;;;5.43;4.63;;;1.00;99.90;;;;;;5034703;28;20435;-72
2021/01/27 04:48:34;;;;;;;5.03;4.53;;;1.00;99.90;;;;;;5052594;28;20517;-72
2021/01/27 04:51:03;;;;;;;5.13;4.40;;;1.00;99.90;;;;;;5034841;28;20439;-72
2021/01/27 04:53:54;;;;;;;5.20;4.27;;;1.10;99.90;;;;;;5052981;28;20436;-71
2021/01/27 04:56:29;;;;;;;5.57;3.60;;;1.10;99.90;;;;;;5052273;28;20531;-72
2021/01/27 04:59:22;;;;;;;8.07;5.30;;;1.00;99.90;;;;;;5052218;28;20428;-72
2021/01/27 05:02:12;;;;;;;5.33;4.47;;;1.00;99.90;;;;;;5044660;28;20423;-71
2021/01/27 05:04:50;;;;;;;4.73;4.30;;;0.90;99.90;;;;;;5052235;28;20456;-71
2021/01/27 05:07:23;;;;;;;6.23;3.80;;;0.90;99.90;;;;;;5052208;28;20624;-71
2021/01/27 05:09:58;;;;;;;6.70;4.00;;;0.90;99.90;;;;;;5052099;28;20446;-71
2021/01/27 05:12:32;;;;;;;6.23;4.10;;;1.00;99.90;;;;;;5052474;28;20450;-72
2021/01/27 05:14:58;;;;;;;5.90;4.20;;;0.90;99.90;;;;;;5052295;28;20538;-71
2021/01/27 05:17:24;;;;;;;5.07;3.90;;;0.90;99.90;;;;;;5052190;28;20452;-71
2021/01/27 05:19:50;;;;;;;5.10;4.13;;;0.90;99.90;;;;;;5052242;28;20451;-71
2021/01/27 05:22:18;;;;;;;4.00;3.33;;;0.90;99.90;;;;;;5052524;28;20240;-71
2021/01/27 05:24:45;;;;;;;5.07;4.60;;;0.90;99.90;;;;;;5051910;28;20817;-72
2021/01/27 05:27:33;;;;;;;4.30;3.90;;;0.90;99.90;;;;;;5052100;28;20531;-72
2021/01/27 05:30:07;;;;;;;4.27;3.87;;;0.90;99.90;;;;;;5052213;28;20979;-72
2021/01/27 05:32:55;;;;;;;7.87;3.87;;;0.90;99.90;;;;;;5037766;28;20428;-71
2021/01/27 05:35:28;;;;;;;4.13;3.73;;;1.00;99.90;;;;;;5051312;28;20459;-72
2021/01/27 05:37:54;;;;;;;5.87;4.27;;;1.00;99.90;;;;;;5052029;28;20456;-71
2021/01/27 05:40:34;;;;;;;6.50;3.70;;;1.10;99.90;;;;;;5052215;28;20490;-71
2021/01/27 05:43:13;;;;;;;6.80;3.90;;;1.10;99.90;;;;;;5033715;28;20435;-71
2021/01/27 05:45:47;;;;;;;4.23;3.83;;;1.00;99.90;;;;;;5051634;28;20424;-71
2021/01/27 05:48:24;;;;;;;4.97;3.30;;;1.00;99.90;;;;;;5051973;28;20609;-71
2021/01/27 05:51:11;;;;;;;6.33;4.30;;;1.00;99.90;;;;;;5033809;28;20435;-72
2021/01/27 05:53:37;;;;;;;5.20;3.73;;;0.90;99.90;;;;;;5047331;28;20444;-71
2021/01/27 05:56:08;;;;;;;5.13;4.03;;;1.00;99.90;;;;;;5050827;28;20759;-72
2021/01/27 05:58:37;;;;;;;6.70;3.23;;;1.00;99.90;;;;;;5050027;28;20559;-71
2021/01/27 06:01:25;;;;;;;3.93;3.60;;;1.00;99.90;;;;;;5049797;28;20470;-72
2021/01/27 06:04:17;;;;;;;4.43;4.03;;;1.10;99.90;;;;;;5051125;28;20962;-72
2021/01/27 06:06:46;;;;;;;4.73;4.20;;;1.10;99.90;;;;;;5050662;28;20993;-72
2021/01/27 06:09:12;;;;;;;6.20;3.90;;;1.10;99.90;;;;;;5050628;28;20435;-72
2021/01/27 06:11:38;;;;;;;5.40;3.40;;;1.20;99.90;;;;;;5050668;28;20435;-71
2021/01/27 06:14:08;;;;;;;4.60;4.10;;;1.10;99.90;;;;;;5050361;28;20455;-72
2021/01/27 06:16:46;;;;;;;5.00;3.70;;;1.10;99.90;;;;;;5050374;28;20439;-72
2021/01/27 06:19:19;;;;;;;3.50;3.20;;;1.10;99.90;;;;;;5048015;28;20435;-72
2021/01/27 06:22:05;;;;;;;5.70;4.23;;;1.10;99.90;;;;;;5032615;28;20445;-72
2021/01/27 06:25:25;;;;;;;6.00;4.43;;;1.00;99.90;;;;;;5039365;28;20454;-72
2021/01/27 06:28:05;;;;;;;4.57;4.17;;;1.00;99.90;;;;;;5041386;28;20463;-71
2021/01/27 06:30:44;;;;;;;4.93;2.73;;;1.00;99.90;;;;;;5050248;28;20427;-71
2021/01/27 06:33:33;;;;;;;6.70;4.07;;;1.00;99.90;;;;;;5050096;28;22078;-71
2021/01/27 06:36:10;;;;;;;6.37;4.23;;;1.00;99.90;;;;;;5049539;28;20495;-71
2021/01/27 06:38:39;;;;;;;4.10;3.80;;;0.90;99.90;;;;;;5050659;28;20830;-71
2021/01/27 06:41:28;;;;;;;4.10;3.70;;;0.90;99.90;;;;;;5050081;28;20501;-72
2021/01/27 06:44:13;;;;;;;4.93;4.43;;;0.90;99.90;;;;;;5050092;28;20431;-72
2021/01/27 06:46:53;;;;;;;5.13;4.20;;;0.90;99.90;;;;;;5049466;28;20455;-72
2021/01/27 06:49:45;;;;;;;4.30;3.60;;;0.90;99.90;;;;;;5049972;28;20427;-71
2021/01/27 06:52:33;;;;;;;5.10;4.00;;;0.90;99.90;;;;;;5049953;28;20430;-71
2021/01/27 06:55:22;;;;;;;4.93;4.40;;;1.00;99.90;;;;;;5045750;28;20459;-71
2021/01/27 06:57:59;;;;;;;5.00;4.30;;;1.00;99.90;;;;;;5048592;28;20993;-71
2021/01/27 07:00:52;;;;;;;7.33;4.00;;;1.00;99.90;;;;;;5031789;28;20431;-71
2021/01/27 07:03:44;;;;;;;6.83;4.47;;;1.00;99.90;;;;;;5049395;28;20420;-71
2021/01/27 07:06:41;;;;;;;7.90;4.00;;;1.00;99.90;;;;;;5049423;28;20515;-71
2021/01/27 07:09:32;;;;;;;5.07;4.53;;;1.10;99.90;;;;;;5048441;28;20427;-71
2021/01/27 07:12:16;;;;;;;5.73;4.47;;;1.10;99.90;;;;;;5049834;28;20909;-71
2021/01/27 07:14:54;;;;;;;5.10;3.70;;;1.20;99.90;;;;;;5043295;28;20455;-71
2021/01/27 07:17:32;;;;;;;5.30;3.90;;;1.20;99.90;;;;;;5047295;28;20447;-71
2021/01/27 07:20:19;;;;;;;6.03;5.40;;;1.20;99.90;;;;;;5049293;28;20802;-71
2021/01/27 07:22:59;;;;;;;4.47;4.07;;;1.30;99.90;;;;;;5049388;28;20856;-71
2021/01/27 07:25:52;;;;;;;9.17;4.33;;;1.30;99.90;;;;;;5047904;28;20447;-71
2021/01/27 07:28:36;;;;;;;8.17;4.67;;;1.30;99.90;;;;;;5048882;28;20833;-71
2021/01/27 07:31:21;;;;;;;5.60;4.50;;;1.30;99.90;;;;;;5048658;28;20424;-71
2021/01/27 07:34:05;;;;;;;3.57;3.23;;;1.30;99.90;;;;;;5045387;28;20428;-71
2021/01/27 07:36:36;;;;;;;4.57;3.43;;;1.30;99.90;;;;;;5030954;28;20436;-71
2021/01/27 07:39:14;;;;;;;3.80;3.20;;;1.30;99.90;;;;;;5049296;28;20478;-71
2021/01/27 07:41:53;;;;;;;4.53;3.43;;;1.30;99.90;;;;;;5049015;28;20434;-71
2021/01/27 07:44:20;;;;;;;4.57;3.30;;;1.40;99.90;;;;;;5049279;28;20443;-71
2021/01/27 07:47:01;;;;;;;5.40;3.30;;;1.30;99.90;;;;;;5048872;28;20448;-71
2021/01/27 07:49:39;;;;;;;3.90;3.60;;;1.30;99.90;;;;;;5046437;28;20427;-71
2021/01/27 07:52:13;;;;;;;6.00;4.10;;;1.30;99.90;;;;;;5049437;28;20463;-71
2021/01/27 07:54:52;;;;;;;4.23;3.83;;;1.30;99.90;;;;;;5047646;28;20908;-71
2021/01/27 07:57:18;;;;;;;5.00;4.50;;;1.30;99.90;;;;;;5048608;28;20459;-71
2021/01/27 07:59:52;;;;;;;3.80;3.50;;;1.20;99.90;;;;;;5049138;28;20432;-71
2021/01/27 08:02:27;;;;;;;6.57;3.83;;;1.20;99.90;;;;;;5048853;28;20173;-71
2021/01/27 08:05:01;;;;;;;4.17;3.73;;;1.10;99.90;;;;;;5031163;28;20954;-71
2021/01/27 08:07:34;;;;;;;6.10;4.60;;;1.10;99.90;;;;;;5030536;28;20505;-71
2021/01/27 08:10:22;;;;;;;7.13;4.30;;;1.10;99.90;;;;;;5049188;28;20798;-71
2021/01/27 08:12:53;;;;;;;7.77;5.00;;;1.20;99.90;;;;;;5043536;28;20424;-71
2021/01/27 08:15:24;;;;;;;4.67;4.20;;;1.30;99.90;;;;;;5048523;28;20459;-71
2021/01/27 08:17:59;;;;;;;4.50;3.70;;;1.30;99.90;;;;;;5048983;28;20555;-71
2021/01/27 08:20:34;;;;;;;9.83;3.83;;;1.40;99.90;;;;;;5048971;28;20470;-71
2021/01/27 08:23:07;;;;;;;4.40;4.00;;;1.30;99.90;;;;;;5048903;28;20440;-71
2021/01/27 08:26:01;;;;;;;4.43;4.07;;;1.30;99.90;;;;;;5048089;28;20444;-71
2021/01/27 08:28:33;;;;;;;7.00;5.70;;;1.20;99.90;;;;;;5048515;28;20617;-71
2021/01/27 08:31:07;;;;;;;4.47;4.00;;;1.20;99.90;;;;;;5048467;28;20996;-71
2021/01/27 08:33:54;;;;;;;8.23;4.50;;;1.20;99.90;;;;;;5031121;28;20439;-71
2021/01/27 08:36:28;;;;;;;4.90;4.30;;;1.20;99.90;;;;;;5046741;28;20440;-71
2021/01/27 08:38:57;;;;;;;5.10;3.70;;;1.20;99.90;;;;;;5051500;28;20423;-71
2021/01/27 08:41:41;;;;;;;6.40;4.90;;;1.20;99.90;;;;;;5051775;28;20432;-71
2021/01/27 08:44:25;;;;;;;6.80;5.13;;;1.20;99.90;;;;;;5041251;28;20485;-71
2021/01/27 08:46:58;;;;;;;7.87;6.40;;;1.20;99.90;;;;;;5051963;28;20973;-71
2021/01/27 08:49:42;;;;;;;7.30;5.97;;;1.20;99.90;;;;;;5052003;28;20432;-71
2021/01/27 08:52:11;;;;;;;6.80;5.07;;;1.20;99.90;;;;;;5051983;28;20428;-71
2021/01/27 08:54:39;;;;;;;7.00;5.00;;;1.20;99.90;;;;;;5052739;28;21129;-71
2021/01/27 08:57:40;;;;;;;7.00;5.17;;;1.10;99.90;;;;;;5051672;28;20455;-71
2021/01/27 09:00:12;;;;;;;7.93;4.70;;;1.20;99.90;;;;;;5052224;28;20435;-71
2021/01/27 09:02:47;;;;;;;5.50;5.00;;;1.20;99.90;;;;;;5051920;28;20428;-71
2021/01/27 09:05:24;;;;;;;5.43;4.23;;;1.20;99.90;;;;;;5051804;28;20466;-71
2021/01/27 09:08:06;;;;;;;5.20;4.80;;;1.10;99.90;;;;;;5033281;28;20516;-71
2021/01/27 09:10:34;;;;;;;5.67;5.17;;;1.00;99.90;;;;;;5045626;28;20723;-71
2021/01/27 09:13:20;;;;;;;6.27;4.90;;;1.00;99.90;;;;;;5051764;28;20428;-71
2021/01/27 09:15:55;;;;;;;6.20;5.13;;;1.10;99.90;;;;;;5033317;28;20460;-71
2021/01/27 09:18:21;;;;;;;5.30;4.80;;;1.00;99.90;;;;;;5034108;28;20454;-71
2021/01/27 09:20:47;;;;;;;6.77;5.77;;;1.00;99.90;;;;;;5051606;28;20431;-71
2021/01/27 09:23:18;;;;;;;7.20;5.17;;;0.90;99.90;;;;;;5049283;28;20173;-71
2021/01/27 09:25:45;;;;;;;6.00;5.20;;;0.80;99.90;;;;;;5051364;28;20215;-71
2021/01/27 09:28:11;;;;;;;7.23;6.43;;;0.80;99.90;;;;;;5033719;28;20483;-71
2021/01/27 09:30:38;;;;;;;6.27;5.40;;;0.80;99.90;;;;;;5051585;28;20514;-71
2021/01/27 09:33:34;;;;;;;8.13;6.17;;;0.80;99.90;;;;;;5051047;28;20186;-71
2021/01/27 09:36:14;;;;;;;7.20;5.13;;;0.70;99.90;;;;;;5040186;28;20509;-71
2021/01/27 09:38:40;;;;;;;7.50;5.53;;;0.80;99.90;;;;;;5051238;28;20454;-71
2021/01/27 09:41:10;;;;;;;5.33;4.27;;;0.80;99.90;;;;;;5051222;28;20962;-71
2021/01/27 09:43:39;;;;;;;7.00;4.50;;;0.80;99.90;;;;;;5051276;28;20436;-71
2021/01/27 09:46:31;;;;;;;5.70;3.73;;;0.70;99.90;;;;;;5051061;28;20557;-71
2021/01/27 09:49:02;;;;;;;5.40;4.60;;;0.70;99.90;;;;;;5047672;28;20935;-71
2021/01/27 09:51:29;;;;;;;5.83;4.40;;;0.60;99.90;;;;;;5050701;28;20482;-71
2021/01/27 09:53:57;;;;;;;4.53;3.93;;;0.60;99.90;;;;;;5051146;28;20471;-71
2021/01/27 09:56:23;;;;;;;7.23;5.43;;;0.60;99.90;;;;;;5050801;28;20433;-71
2021/01/27 09:58:50;;;;;;;5.17;4.67;;;0.70;99.90;;;;;;5051058;28;20440;-71
2021/01/27 10:01:18;;;;;;;9.30;4.60;;;0.70;99.90;;;;;;5050770;28;20459;-71
2021/01/27 10:04:05;;;;;;;7.10;5.77;;;0.70;99.90;;;;;;5050964;28;20428;-71
2021/01/27 10:06:50;;;;;;;11.40;4.97;;;0.70;99.90;;;;;;5032491;28;20448;-71
2021/01/27 10:09:29;;;;;;;7.27;5.07;;;0.70;99.90;;;;;;5050851;28;20967;-71
2021/01/27 10:11:58;;;;;;;6.30;4.80;;;0.70;99.90;;;;;;5051046;28;20798;-70
2021/01/27 10:14:31;;;;;;;8.30;4.83;;;0.70;99.90;;;;;;5050435;28;20819;-71
2021/01/27 10:17:00;;;;;;;7.03;4.50;;;0.70;99.90;;;;;;5050388;28;20488;-71
2021/01/27 10:19:32;;;;;;;5.87;3.90;;;0.80;99.90;;;;;;5050490;28;20423;-71
2021/01/27 10:22:00;;;;;;;6.80;5.00;;;0.80;99.90;;;;;;5050396;28;20497;-71
2021/01/27 10:24:57;;;;;;;8.97;5.30;;;0.80;99.90;;;;;;5050760;28;20436;-71
2021/01/27 10:27:38;;;;;;;4.40;4.00;;;0.90;99.90;;;;;;5049534;28;20459;-71
2021/01/27 10:30:17;;;;;;;5.33;4.50;;;0.90;99.90;;;;;;5038870;28;21054;-71
2021/01/27 10:32:44;;;;;;;7.53;4.47;;;1.00;99.90;;;;;;5049976;28;20443;-72
2021/01/27 10:35:22;;;;;;;7.63;5.00;;;1.10;99.90;;;;;;5049728;28;20466;-72
2021/01/27 10:37:49;;;;;;;14.80;4.87;;;1.20;99.90;;;;;;5050322;28;20443;-72
2021/01/27 10:40:30;;;;;;;7.20;4.97;;;1.20;99.90;;;;;;5050079;28;20486;-72
2021/01/27 10:42:56;;;;;;;7.37;5.20;;;1.30;99.90;;;;;;5027635;28;20842;-72
2021/01/27 10:45:30;;;;;;;6.47;4.90;;;1.40;99.90;;;;;;5049608;28;20428;-71
2021/01/27 10:48:04;;;;;;;6.80;3.93;;;1.50;99.90;;;;;;5050187;28;20448;-72
2021/01/27 10:50:30;;;;;;;5.63;4.60;;;1.40;99.90;;;;;;5049642;28;20835;-72
2021/01/27 10:52:58;;;;;;;6.97;4.50;;;1.30;99.90;;;;;;5049788;28;20497;-71
2021/01/27 10:55:30;;;;;;;6.90;4.33;;;1.20;99.90;;;;;;5049407;28;20866;-71
2021/01/27 10:58:16;;;;;;;6.50;4.87;;;1.20;99.90;;;;;;5049712;28;20443;-72
2021/01/27 11:00:43;;;;;;;3.70;3.40;;;1.20;99.90;;;;;;5049555;28;20941;-71
2021/01/27 11:03:10;;;;;;;3.70;3.40;;;1.20;99.90;;;;;;5031569;28;20518;-71
2021/01/27 11:05:36;;;;;;;5.30;4.00;;;1.10;99.90;;;;;;5049465;28;20785;-71
2021/01/27 11:08:04;;;;;;;6.57;4.00;;;1.10;99.90;;;;;;5049524;28;20470;-72
2021/01/27 11:10:31;;;;;;;6.83;4.50;;;1.20;99.90;;;;;;5050037;28;20459;-71
2021/01/27 11:12:57;;;;;;;5.40;3.87;;;1.30;99.90;;;;;;5049256;28;20825;-72
2021/01/27 11:15:23;;;;;;;4.60;3.70;;;1.30;99.90;;;;;;5049043;28;20562;-71
2021/01/27 11:17:50;;;;;;;4.30;3.90;;;1.30;99.90;;;;;;5046630;28;20197;-71
2021/01/27 11:20:19;;;;;;;9.20;4.50;;;1.40;99.90;;;;;;5049669;28;20428;-72
2021/01/27 11:22:49;;;;;;;4.77;3.80;;;1.40;99.90;;;;;;5049613;28;20443;-72
2021/01/27 11:25:21;;;;;;;4.97;3.83;;;1.40;99.90;;;;;;5049069;28;20977;-71
2021/01/27 11:27:47;;;;;;;3.77;3.43;;;1.30;99.90;;;;;;5049437;28;21061;-71
2021/01/27 11:30:16;;;;;;;5.93;4.37;;;1.30;99.90;;;;;;5049715;28;20506;-71
2021/01/27 11:32:42;;;;;;;5.23;3.07;;;1.40;99.90;;;;;;5049197;28;20478;-71
2021/01/27 11:35:08;;;;;;;4.00;3.30;;;1.50;99.90;;;;;;5049206;28;20495;-71
2021/01/27 11:37:33;;;;;;;3.60;3.30;;;1.50;99.90;;;;;;5049395;28;20204;-70
2021/01/27 11:39:59;;;;;;;5.37;3.97;;;1.60;99.90;;;;;;5048824;28;20428;-69
2021/01/27 11:42:25;;;;;;;4.47;3.30;;;1.70;99.90;;;;;;5049947;28;20173;-68
2021/01/27 11:44:50;;;;;;;3.83;3.20;;;1.80;99.90;;;;;;5049707;28;20181;-69
2021/01/27 11:47:16;;;;;;;5.60;3.47;;;1.90;99.90;;;;;;5049444;28;20198;-69
2021/01/27 11:49:44;;;;;;;3.17;2.73;;;1.80;99.90;;;;;;5049173;28;20791;-69
2021/01/27 11:52:10;;;;;;;2.60;2.40;;;1.80;99.90;;;;;;5049377;28;20289;-71
2021/01/27 11:54:39;;;;;;;3.67;3.37;;;1.70;99.90;;;;;;5049199;28;21116;-72
2021/01/27 11:57:06;;;;;;;4.13;2.53;;;1.80;99.90;;;;;;5048704;28;20671;-71
2021/01/27 11:59:32;;;;;;;4.50;2.90;;;1.70;99.90;;;;;;5049152;28;20570;-71
2021/01/27 12:02:02;;;;;;;7.43;2.70;;;1.70;99.90;;;;;;5049117;28;20515;-71
2021/01/27 12:04:27;;;;;;;3.47;3.17;;;1.70;99.90;;;;;;5049210;28;20177;-71
2021/01/27 12:06:53;;;;;;;6.53;2.50;;;1.70;99.90;;;;;;5048648;28;20467;-71
2021/01/27 12:09:19;;;;;;;2.90;2.57;;;1.70;99.90;;;;;;5031239;28;20661;-71
2021/01/27 12:11:44;;;;;;;3.33;3.03;;;1.60;99.90;;;;;;5042161;28;20683;-71
2021/01/27 12:14:10;;;;;;;4.97;2.83;;;1.60;99.90;;;;;;5034121;28;20692;-71
2021/01/27 12:16:35;;;;;;;3.63;2.90;;;1.60;99.90;;;;;;5052564;28;20319;-71
2021/01/27 12:19:01;;;;;;;4.13;3.43;;;1.70;99.90;;;;;;5051652;28;20204;-70
2021/01/27 12:21:26;;;;;;;3.30;2.70;;;1.80;99.90;;;;;;5048435;28;20252;-71
2021/01/27 12:23:51;;;;;;;2.53;2.23;;;1.90;99.90;;;;;;5048007;28;20193;-71
2021/01/27 12:26:17;;;;;;;3.50;2.03;;;1.90;99.90;;;;;;5045362;28;20177;-71
2021/01/27 12:28:44;;;;;;;2.47;2.27;;;1.90;99.90;;;;;;5035950;28;20197;-71
2021/01/27 12:31:10;;;;;;;8.67;4.37;;;2.00;99.90;;;;;;5050908;28;20273;-71
2021/01/27 12:33:36;;;;;;;3.50;2.43;;;1.90;99.90;;;;;;5052671;28;20945;-71
2021/01/27 12:36:02;;;;;;;2.03;1.70;;;1.90;99.90;;;;;;5052956;28;20463;-71
2021/01/27 12:38:28;;;;;;;3.67;2.07;;;1.90;99.90;;;;;;5052712;28;20451;-71
2021/01/27 12:40:54;;;;;;;2.70;2.23;;;1.80;99.90;;;;;;5048699;28;20440;-71
2021/01/27 12:43:19;;;;;;;2.47;2.23;;;1.70;99.90;;;;;;5052510;28;20174;-71
2021/01/27 12:45:45;;;;;;;4.00;2.37;;;1.80;99.90;;;;;;5034790;28;20180;-71
2021/01/27 12:48:10;;;;;;;3.17;2.60;;;1.80;99.90;;;;;;5045165;28;20201;-71
2021/01/27 12:50:36;;;;;;;3.97;2.53;;;2.00;99.90;;;;;;5044016;28;20210;-71
2021/01/27 12:53:01;;;;;;;3.87;3.03;;;2.00;99.90;;;;;;5050682;28;20224;-71
2021/01/27 12:55:27;;;;;;;2.83;2.40;;;2.10;99.90;;;;;;5051933;28;20205;-71
2021/01/27 12:57:53;;;;;;;3.67;2.50;;;2.00;99.90;;;;;;5050596;28;20239;-71
2021/01/27 13:00:23;;;;;;;2.50;2.30;;;1.90;99.90;;;;;;5052126;28;20578;-71
2021/01/27 13:02:51;;;;;;;3.47;3.20;;;1.90;99.90;;;;;;5047472;28;20185;-71
2021/01/27 13:05:18;;;;;;;2.90;2.70;;;1.90;99.90;;;;;;5043928;28;20478;-71
2021/01/27 13:07:43;;;;;;;5.27;3.40;;;2.00;99.90;;;;;;5052462;28;20524;-71
2021/01/27 13:10:09;;;;;;;6.70;3.73;;;2.10;99.90;;;;;;5051294;28;20523;-72
2021/01/27 13:12:36;;;;;;;3.93;2.87;;;2.30;99.90;;;;;;5043442;28;20177;-70
2021/01/27 13:15:05;;;;;;;5.17;2.40;;;2.20;99.90;;;;;;5047351;28;20971;-71
2021/01/27 13:17:31;;;;;;;5.67;2.20;;;1.90;99.90;;;;;;5050936;28;20974;-70
2021/01/27 13:19:56;;;;;;;6.33;2.90;;;1.80;99.90;;;;;;5049621;28;20435;-70
2021/01/27 13:22:22;;;;;;;3.87;2.90;;;1.90;99.90;;;;;;5044215;28;20197;-70
2021/01/27 13:24:47;;;;;;;6.73;3.37;;;1.90;99.90;;;;;;5044274;28;20227;-70